createdAt,value
2018-10-07T00:00:32.357Z,39.92
2018-10-07T00:01:36.497Z,35.78
2018-10-07T00:02:40.584Z,38.05
2018-10-07T00:03:44.642Z,37.73
2018-10-07T00:04:48.736Z,39.78
2018-10-07T00:05:52.906Z,38.53
2018-10-07T00:06:57.036Z,40.88
2018-10-07T00:08:01.189Z,41.88
2018-10-07T00:09:06.731Z,41.48
2018-10-07T00:10:12.380Z,41.68
2018-10-07T00:11:16.565Z,40.50
2018-10-07T00:12:20.644Z,41.55
2018-10-07T00:13:24.671Z,41.35
2018-10-07T00:14:28.856Z,40.70
2018-10-07T00:15:33.473Z,42.23
2018-10-07T00:16:37.857Z,44.10
2018-10-07T00:17:42.054Z,43.15
2018-10-07T00:18:46.197Z,40.65
2018-10-07T00:19:50.252Z,41.42
2018-10-07T00:20:54.305Z,42.50
2018-10-07T00:21:58.538Z,41.63
2018-10-07T00:23:02.821Z,42.03
2018-10-07T00:24:06.862Z,38.02
2018-10-07T00:25:11.596Z,39.45
2018-10-07T00:26:15.763Z,39.50
2018-10-07T00:27:19.786Z,41.25
2018-10-07T00:28:23.992Z,36.20
2018-10-07T00:29:28.092Z,37.58
2018-10-07T00:30:32.472Z,38.42
2018-10-07T00:31:41.915Z,38.25
2018-10-07T00:32:45.998Z,38.67
2018-10-07T00:33:50.067Z,40.95
2018-10-07T00:34:54.175Z,37.67
2018-10-07T00:35:58.284Z,40.92
2018-10-07T00:37:02.380Z,42.05
2018-10-07T00:38:06.478Z,42.35
2018-10-07T00:39:11.491Z,41.50
2018-10-07T00:40:15.584Z,43.70
2018-10-07T00:41:19.676Z,40.88
2018-10-07T00:42:23.809Z,42.15
2018-10-07T00:43:27.880Z,45.60
2018-10-07T00:44:32.204Z,43.65
2018-10-07T00:45:36.251Z,46.23
2018-10-07T00:46:40.330Z,43.87
2018-10-07T00:47:44.375Z,45.58
2018-10-07T00:48:48.532Z,45.70
2018-10-07T00:49:52.914Z,44.45
2018-10-07T00:50:57.052Z,44.42
2018-10-07T00:52:01.191Z,50.43
2018-10-07T00:53:05.345Z,49.33
2018-10-07T00:54:09.417Z,48.65
2018-10-07T00:55:13.861Z,47.43
2018-10-07T00:56:18.052Z,51.25
2018-10-07T00:57:22.596Z,50.85
2018-10-07T00:58:26.727Z,49.20
2018-10-07T00:59:30.771Z,48.90
2018-10-07T01:00:34.876Z,47.88
2018-10-07T01:01:39.286Z,51.00
2018-10-07T01:02:43.435Z,48.78
2018-10-07T01:03:47.622Z,47.30
2018-10-07T01:04:52.063Z,51.23
2018-10-07T01:05:56.186Z,49.48
2018-10-07T01:07:00.362Z,48.23
2018-10-07T01:08:04.413Z,47.98
2018-10-07T01:09:10.040Z,48.13
2018-10-07T01:10:14.093Z,48.42
2018-10-07T01:11:18.147Z,48.35
2018-10-07T01:12:22.347Z,48.15
2018-10-07T01:13:26.403Z,50.38
2018-10-07T01:14:30.460Z,46.60
2018-10-07T01:15:34.805Z,49.98
2018-10-07T01:16:38.944Z,46.98
2018-10-07T01:17:43.159Z,47.75
2018-10-07T01:18:47.198Z,45.85
2018-10-07T01:19:51.341Z,47.78
2018-10-07T01:20:55.465Z,48.02
2018-10-07T01:21:59.584Z,47.85
2018-10-07T01:23:03.769Z,47.35
2018-10-07T01:24:08.618Z,49.67
2018-10-07T01:25:12.696Z,47.88
2018-10-07T01:26:16.944Z,47.58
2018-10-07T01:27:21.855Z,47.98
2018-10-07T01:28:26.017Z,47.13
2018-10-07T01:29:30.299Z,47.90
2018-10-07T01:30:34.349Z,49.60
2018-10-07T01:31:38.472Z,50.85
2018-10-07T01:32:42.601Z,51.00
2018-10-07T01:33:46.806Z,47.58
2018-10-07T01:34:51.001Z,53.02
2018-10-07T01:35:55.104Z,50.20
2018-10-07T01:36:59.338Z,52.27
2018-10-07T01:38:03.466Z,55.35
2018-10-07T01:39:09.432Z,51.15
2018-10-07T01:40:13.605Z,50.15
2018-10-07T01:41:17.968Z,57.20
2018-10-07T01:42:21.996Z,56.58
2018-10-07T01:43:26.242Z,57.05
2018-10-07T01:44:30.400Z,59.20
2018-10-07T01:45:34.524Z,58.23
2018-10-07T01:46:38.610Z,58.45
2018-10-07T01:47:43.060Z,59.83
2018-10-07T01:48:47.230Z,58.05
2018-10-07T01:49:51.331Z,59.25
2018-10-07T01:50:55.527Z,63.80
2018-10-07T01:51:59.648Z,62.65
2018-10-07T01:53:03.824Z,62.15
2018-10-07T01:54:07.929Z,66.92
2018-10-07T01:55:11.987Z,65.40
2018-10-07T01:56:16.227Z,65.12
2018-10-07T01:57:20.424Z,63.50
2018-10-07T01:58:24.515Z,64.65
2018-10-07T01:59:28.734Z,67.03
2018-10-07T02:00:32.855Z,61.60
2018-10-07T02:01:36.987Z,58.00
2018-10-07T02:02:41.047Z,67.78
2018-10-07T02:03:45.167Z,63.13
2018-10-07T02:04:49.415Z,63.65
2018-10-07T02:05:53.744Z,66.70
2018-10-07T02:06:57.759Z,65.03
2018-10-07T02:08:01.870Z,63.10
2018-10-07T02:09:08.044Z,70.10
2018-10-07T02:10:12.279Z,67.35
2018-10-07T02:11:16.376Z,68.30
2018-10-07T02:12:20.605Z,68.33
2018-10-07T02:13:24.861Z,66.80
2018-10-07T02:14:28.949Z,69.12
2018-10-07T02:15:33.124Z,66.28
2018-10-07T02:16:37.315Z,70.60
2018-10-07T02:17:41.469Z,63.28
2018-10-07T02:18:45.622Z,61.50
2018-10-07T02:19:49.949Z,68.80
2018-10-07T02:20:54.209Z,68.92
2018-10-07T02:21:58.338Z,61.85
2018-10-07T02:23:02.419Z,66.80
2018-10-07T02:24:06.548Z,69.22
2018-10-07T02:25:10.627Z,71.33
2018-10-07T02:26:14.948Z,72.08
2018-10-07T02:27:19.024Z,69.15
2018-10-07T02:28:23.154Z,67.78
2018-10-07T02:29:27.300Z,66.22
2018-10-07T02:30:31.501Z,69.35
2018-10-07T02:31:36.443Z,68.70
2018-10-07T02:32:40.500Z,63.83
2018-10-07T02:33:44.581Z,66.97
2018-10-07T02:34:48.643Z,65.28
2018-10-07T02:35:52.796Z,63.90
2018-10-07T02:36:56.912Z,66.20
2018-10-07T02:38:01.226Z,62.27
2018-10-07T02:39:07.267Z,67.62
2018-10-07T02:40:11.424Z,69.00
2018-10-07T02:41:15.566Z,66.35
2018-10-07T02:42:19.667Z,65.80
2018-10-07T02:43:23.968Z,71.05
2018-10-07T02:44:28.038Z,67.80
2018-10-07T02:45:32.231Z,63.35
2018-10-07T02:46:36.316Z,65.78
2018-10-07T02:47:40.608Z,60.43
2018-10-07T02:48:44.700Z,64.55
2018-10-07T02:49:48.760Z,67.85
2018-10-07T02:50:52.864Z,61.68
2018-10-07T02:51:57.174Z,64.05
2018-10-07T02:53:01.476Z,64.40
2018-10-07T02:54:06.008Z,63.85
2018-10-07T02:55:10.180Z,66.72
2018-10-07T02:56:14.371Z,60.85
2018-10-07T02:57:18.646Z,62.20
2018-10-07T02:58:23.418Z,61.60
2018-10-07T02:59:27.710Z,66.45
2018-10-07T03:00:31.859Z,65.55
2018-10-07T03:01:35.992Z,67.50
2018-10-07T03:02:40.120Z,61.95
2018-10-07T03:03:44.189Z,61.15
2018-10-07T03:04:48.451Z,62.25
2018-10-07T03:05:52.540Z,57.73
2018-10-07T03:06:56.888Z,61.20
2018-10-07T03:08:01.339Z,61.28
2018-10-07T03:09:07.053Z,59.30
2018-10-07T03:10:11.512Z,62.17
2018-10-07T03:11:15.893Z,60.10
2018-10-07T03:12:20.009Z,61.25
2018-10-07T03:13:24.266Z,58.33
2018-10-07T03:14:28.385Z,59.00
2018-10-07T03:15:32.745Z,62.17
2018-10-07T03:16:36.900Z,40.03
2018-10-07T03:17:40.916Z,44.15
2018-10-07T03:18:45.072Z,49.80
2018-10-07T03:19:49.115Z,57.90
2018-10-07T03:20:53.193Z,55.17
2018-10-07T03:21:57.224Z,54.13
2018-10-07T03:23:01.244Z,54.90
2018-10-07T03:24:05.371Z,57.95
2018-10-07T03:25:09.966Z,54.88
2018-10-07T03:26:14.085Z,57.48
2018-10-07T03:27:18.364Z,57.75
2018-10-07T03:28:22.434Z,55.17
2018-10-07T03:29:26.516Z,54.33
2018-10-07T03:30:30.672Z,51.98
2018-10-07T03:31:34.705Z,51.53
2018-10-07T03:32:38.871Z,51.92
2018-10-07T03:33:42.959Z,50.88
2018-10-07T03:34:47.023Z,50.25
2018-10-07T03:35:51.168Z,48.13
2018-10-07T03:36:55.220Z,51.37
2018-10-07T03:37:59.412Z,50.52
2018-10-07T03:39:05.308Z,35.78
2018-10-07T03:40:09.350Z,42.70
2018-10-07T03:41:13.487Z,38.80
2018-10-07T03:42:17.545Z,39.90
2018-10-07T03:43:21.649Z,42.08
2018-10-07T03:44:25.715Z,32.48
2018-10-07T03:45:29.769Z,35.25
2018-10-07T03:46:33.908Z,28.30
2018-10-07T03:47:37.976Z,28.25
2018-10-07T03:48:42.161Z,25.77
2018-10-07T03:49:46.358Z,23.00
2018-10-07T03:50:50.491Z,22.25
2018-10-07T03:51:54.874Z,20.45
2018-10-07T03:52:58.959Z,17.23
2018-10-07T03:54:03.060Z,13.53
2018-10-07T03:55:07.156Z,15.15
2018-10-07T03:56:11.225Z,16.95
2018-10-07T03:57:15.382Z,14.50
2018-10-07T03:58:19.622Z,15.93
2018-10-07T03:59:24.119Z,14.25
2018-10-07T04:00:28.197Z,13.98
2018-10-07T04:01:32.418Z,11.53
2018-10-07T04:02:36.540Z,12.15
2018-10-07T04:03:40.598Z,14.60
2018-10-07T04:04:44.726Z,13.93
2018-10-07T04:05:48.815Z,16.35
2018-10-07T04:06:52.897Z,12.23
2018-10-07T04:07:57.124Z,14.78
2018-10-07T04:09:01.203Z,14.40
2018-10-07T04:10:05.376Z,15.30
2018-10-07T04:11:09.461Z,13.60
2018-10-07T04:12:13.613Z,14.58
2018-10-07T04:13:18.002Z,14.07
2018-10-07T04:14:22.160Z,11.25
2018-10-07T04:15:26.294Z,13.38
2018-10-07T04:16:30.506Z,14.83
2018-10-07T04:17:34.983Z,12.10
2018-10-07T04:18:39.123Z,13.95
2018-10-07T04:19:43.309Z,14.13
2018-10-07T04:20:47.411Z,15.30
2018-10-07T04:21:57.629Z,13.30
2018-10-07T04:23:01.726Z,12.85
2018-10-07T04:24:05.923Z,14.07
2018-10-07T04:25:10.016Z,15.63
2018-10-07T04:26:14.072Z,13.15
2018-10-07T04:27:18.175Z,13.83
2018-10-07T04:28:22.279Z,11.35
2018-10-07T04:29:26.582Z,14.30
2018-10-07T04:30:30.659Z,11.90
2018-10-07T04:31:34.837Z,11.97
2018-10-07T04:32:38.932Z,9.78
2018-10-07T04:33:42.997Z,13.53
2018-10-07T04:34:47.312Z,13.25
2018-10-07T04:35:51.371Z,11.70
2018-10-07T04:36:55.738Z,11.38
2018-10-07T04:38:00.163Z,11.22
2018-10-07T04:39:05.290Z,12.65
2018-10-07T04:40:09.374Z,13.88
2018-10-07T04:41:13.434Z,12.35
2018-10-07T04:42:17.444Z,12.30
2018-10-07T04:43:21.536Z,13.65
2018-10-07T04:44:25.737Z,12.33
2018-10-07T04:45:29.819Z,12.40
2018-10-07T04:46:34.132Z,11.80
2018-10-07T04:47:38.586Z,13.55
2018-10-07T04:48:42.698Z,14.95
2018-10-07T04:49:46.801Z,11.30
2018-10-07T04:50:50.940Z,11.83
2018-10-07T04:51:54.985Z,12.07
2018-10-07T04:52:59.125Z,12.30
2018-10-07T04:54:03.587Z,10.40
2018-10-07T04:55:07.724Z,11.90
2018-10-07T04:56:11.768Z,13.80
2018-10-07T04:57:15.826Z,12.65
2018-10-07T04:58:19.952Z,11.85
2018-10-07T04:59:24.044Z,12.10
2018-10-07T05:00:28.158Z,12.58
2018-10-07T05:01:32.260Z,13.40
2018-10-07T05:02:36.387Z,13.45
2018-10-07T05:03:40.618Z,13.40
2018-10-07T05:04:44.815Z,13.13
2018-10-07T05:05:49.416Z,12.00
2018-10-07T05:06:53.661Z,13.25
2018-10-07T05:07:57.804Z,14.10
2018-10-07T05:09:03.061Z,15.30
2018-10-07T05:10:18.446Z,16.30
2018-10-07T05:11:22.597Z,15.78
2018-10-07T05:12:26.796Z,17.85
2018-10-07T05:13:35.814Z,16.27
2018-10-07T05:14:39.976Z,16.85
2018-10-07T05:15:44.649Z,17.30
2018-10-07T05:16:49.767Z,16.60
2018-10-07T05:17:53.936Z,16.05
2018-10-07T05:18:58.376Z,15.85
2018-10-07T05:20:02.496Z,16.12
2018-10-07T05:21:06.568Z,18.15
2018-10-07T05:22:11.230Z,15.88
2018-10-07T05:23:15.533Z,15.65
2018-10-07T05:24:19.799Z,18.80
2018-10-07T05:25:23.866Z,20.90
2018-10-07T05:26:28.574Z,19.05
2018-10-07T05:27:32.746Z,21.37
2018-10-07T05:28:37.076Z,20.77
2018-10-07T05:29:41.182Z,20.43
2018-10-07T05:30:45.222Z,16.75
2018-10-07T05:31:49.452Z,16.90
2018-10-07T05:32:53.549Z,16.30
2018-10-07T05:33:57.618Z,14.58
2018-10-07T05:35:01.738Z,14.85
2018-10-07T05:36:05.961Z,13.85
2018-10-07T05:37:10.076Z,15.13
2018-10-07T05:38:14.192Z,16.00
2018-10-07T05:39:18.474Z,15.95
2018-10-07T05:40:22.556Z,14.98
2018-10-07T05:41:28.042Z,11.70
2018-10-07T05:42:32.190Z,16.05
2018-10-07T05:43:36.368Z,15.85
2018-10-07T05:44:40.573Z,15.18
2018-10-07T05:45:44.568Z,12.35
2018-10-07T05:46:48.647Z,15.93
2018-10-07T05:47:53.371Z,16.93
2018-10-07T05:48:57.534Z,14.45
2018-10-07T05:50:01.676Z,14.45
2018-10-07T05:51:05.779Z,11.80
2018-10-07T05:52:09.913Z,10.90
2018-10-07T05:53:14.052Z,9.70
2018-10-07T05:54:18.178Z,11.00
2018-10-07T05:55:22.544Z,11.22
2018-10-07T05:56:26.637Z,10.90
2018-10-07T05:57:30.728Z,9.90
2018-10-07T05:58:35.176Z,10.10
2018-10-07T05:59:43.427Z,10.95
2018-10-07T06:00:47.508Z,10.45
2018-10-07T06:01:51.873Z,9.35
2018-10-07T06:03:02.240Z,8.70
2018-10-07T06:04:22.987Z,8.48
2018-10-07T06:05:27.194Z,7.70
2018-10-07T06:06:31.364Z,7.62
2018-10-07T06:07:35.486Z,8.53
2018-10-07T06:08:41.261Z,7.80
2018-10-07T06:09:45.629Z,7.50
2018-10-07T06:10:49.732Z,6.87
2018-10-07T06:11:54.580Z,7.10
2018-10-07T06:12:58.661Z,6.70
2018-10-07T06:14:02.816Z,5.92
2018-10-07T06:15:22.791Z,5.90
2018-10-07T06:16:26.851Z,5.45
2018-10-07T06:17:30.996Z,4.67
2018-10-07T06:18:35.111Z,5.15
2018-10-07T06:19:39.195Z,5.15
2018-10-07T06:20:43.279Z,4.97
2018-10-07T06:21:47.668Z,5.00
2018-10-07T06:22:51.774Z,5.08
2018-10-07T06:23:55.919Z,4.92
2018-10-07T06:25:00.199Z,4.60
2018-10-07T06:26:04.289Z,5.37
2018-10-07T06:27:08.329Z,4.20
2018-10-07T06:28:12.472Z,4.05
2018-10-07T06:29:16.700Z,3.37
2018-10-07T06:30:21.032Z,3.37
2018-10-07T06:31:25.120Z,3.70
2018-10-07T06:32:29.260Z,2.30
2018-10-07T06:33:33.424Z,2.70
2018-10-07T06:34:37.580Z,2.35
2018-10-07T06:35:41.748Z,2.95
2018-10-07T06:36:45.917Z,1.80
2018-10-07T06:37:49.999Z,2.27
2018-10-07T06:38:54.096Z,2.02
2018-10-07T06:39:58.328Z,1.72
2018-10-07T06:41:02.443Z,1.75
2018-10-07T06:42:06.852Z,2.00
2018-10-07T06:43:10.964Z,1.65
2018-10-07T06:44:15.267Z,2.30
2018-10-07T06:45:19.804Z,1.30
2018-10-07T06:46:24.048Z,1.75
2018-10-07T06:47:28.155Z,1.80
2018-10-07T06:48:32.255Z,2.20
2018-10-07T06:49:36.364Z,1.90
2018-10-07T06:50:40.563Z,1.98
2018-10-07T06:51:44.678Z,2.17
2018-10-07T06:52:48.723Z,2.08
2018-10-07T06:53:52.980Z,2.10
2018-10-07T06:55:01.598Z,2.40
2018-10-07T06:56:05.750Z,2.50
2018-10-07T06:57:09.947Z,2.00
2018-10-07T06:58:14.082Z,1.90
2018-10-07T06:59:18.577Z,2.77
2018-10-07T07:00:22.620Z,2.47
2018-10-07T07:01:26.772Z,2.40
2018-10-07T07:02:30.936Z,2.00
2018-10-07T07:03:34.964Z,2.67
2018-10-07T07:04:39.037Z,2.95
2018-10-07T07:05:43.232Z,2.87
2018-10-07T07:06:47.388Z,2.67
2018-10-07T07:07:51.372Z,2.80
2018-10-07T07:08:55.623Z,2.52
2018-10-07T07:09:59.679Z,2.10
2018-10-07T07:11:04.360Z,3.08
2018-10-07T07:12:08.653Z,2.87
2018-10-07T07:13:12.725Z,2.77
2018-10-07T07:14:18.963Z,3.10
2018-10-07T07:15:23.049Z,2.47
2018-10-07T07:16:27.270Z,3.67
2018-10-07T07:17:31.308Z,3.20
2018-10-07T07:18:35.393Z,2.92
2018-10-07T07:19:39.788Z,2.72
2018-10-07T07:20:43.800Z,2.10
2018-10-07T07:21:47.920Z,2.90
2018-10-07T07:22:52.327Z,2.60
2018-10-07T07:24:03.189Z,3.05
2018-10-07T07:25:07.308Z,2.70
2018-10-07T07:26:11.465Z,2.25
2018-10-07T07:27:15.706Z,2.75
2018-10-07T07:28:20.247Z,2.52
2018-10-07T07:29:24.494Z,2.45
2018-10-07T07:30:28.724Z,2.45
2018-10-07T07:31:33.014Z,2.40
2018-10-07T07:32:37.036Z,2.22
2018-10-07T07:33:41.360Z,2.67
2018-10-07T07:38:09.005Z,2.62
2018-10-07T07:39:12.989Z,2.55
2018-10-07T07:40:16.972Z,2.45
2018-10-07T07:41:20.947Z,2.67
2018-10-07T07:42:24.984Z,2.20
2018-10-07T07:43:29.004Z,2.37
2018-10-07T07:44:33.298Z,2.40
2018-10-07T07:45:47.380Z,1.75
2018-10-07T07:46:51.416Z,2.25
2018-10-07T07:47:55.426Z,2.15
2018-10-07T07:48:59.429Z,2.47
2018-10-07T07:50:03.421Z,2.90
2018-10-07T07:51:07.467Z,2.40
2018-10-07T07:52:17.312Z,3.50
2018-10-07T07:53:21.284Z,3.35
2018-10-07T07:54:25.309Z,3.40
2018-10-07T07:55:29.362Z,3.12
2018-10-07T07:56:33.367Z,3.50
2018-10-07T07:57:37.340Z,3.60
2018-10-07T07:58:41.372Z,3.35
2018-10-07T07:59:45.617Z,3.17
2018-10-07T08:00:49.592Z,2.95
2018-10-07T08:01:55.926Z,3.50
2018-10-07T08:02:59.951Z,3.45
2018-10-07T08:04:04.214Z,3.50
2018-10-07T08:05:08.275Z,3.10
2018-10-07T08:06:12.334Z,3.17
2018-10-07T08:07:16.361Z,3.05
2018-10-07T08:08:20.401Z,3.33
2018-10-07T08:09:24.454Z,3.35
2018-10-07T08:10:28.468Z,2.98
2018-10-07T08:11:32.539Z,3.10
2018-10-07T08:12:36.812Z,3.00
2018-10-07T08:13:40.869Z,2.77
2018-10-07T08:14:44.821Z,3.15
2018-10-07T08:15:48.876Z,3.17
2018-10-07T08:16:52.880Z,3.58
2018-10-07T08:17:56.959Z,3.40
2018-10-07T08:19:00.967Z,3.45
2018-10-07T08:20:04.935Z,3.95
2018-10-07T08:21:08.953Z,3.77
2018-10-07T08:22:13.048Z,3.42
2018-10-07T08:23:17.128Z,3.22
2018-10-07T08:24:21.080Z,3.75
2018-10-07T08:25:25.139Z,3.70
2018-10-07T08:26:29.137Z,3.70
2018-10-07T08:27:33.125Z,3.22
2018-10-07T08:28:37.111Z,3.27
2018-10-07T08:29:41.141Z,3.40
2018-10-07T08:30:45.227Z,3.20
2018-10-07T08:31:49.257Z,3.10
2018-10-07T08:32:53.350Z,3.42
2018-10-07T08:33:57.408Z,3.60
2018-10-07T08:35:01.529Z,3.40
2018-10-07T08:36:05.518Z,3.35
2018-10-07T08:37:10.001Z,4.00
2018-10-07T08:38:14.307Z,4.85
2018-10-07T08:39:18.413Z,3.05
2018-10-07T08:40:22.804Z,2.75
2018-10-07T08:41:26.857Z,3.45
2018-10-07T08:42:30.997Z,3.10
2018-10-07T08:46:51.096Z,3.47
2018-10-07T08:47:55.175Z,2.70
2018-10-07T08:49:01.566Z,3.52
2018-10-07T08:50:05.593Z,3.02
2018-10-07T08:51:09.660Z,3.10
2018-10-07T08:52:14.003Z,2.90
2018-10-07T08:53:18.096Z,3.20
2018-10-07T08:54:22.226Z,3.22
2018-10-07T08:55:26.395Z,2.98
2018-10-07T08:56:30.623Z,2.80
2018-10-07T08:57:34.625Z,3.37
2018-10-07T08:58:38.686Z,2.87
2018-10-07T08:59:42.785Z,3.22
2018-10-07T09:00:47.114Z,3.10
2018-10-07T09:01:51.399Z,2.50
2018-10-07T09:02:58.352Z,2.92
2018-10-07T09:04:02.409Z,3.20
2018-10-07T09:05:06.515Z,2.55
2018-10-07T09:06:10.586Z,2.80
2018-10-07T09:07:14.779Z,2.67
2018-10-07T09:08:18.823Z,3.02
2018-10-07T09:09:22.878Z,3.10
2018-10-07T09:10:26.915Z,3.27
2018-10-07T09:11:31.081Z,3.00
2018-10-07T09:12:35.268Z,2.30
2018-10-07T09:13:39.831Z,3.20
2018-10-07T09:14:44.202Z,3.10
2018-10-07T09:15:48.259Z,2.80
2018-10-07T09:16:52.355Z,3.10
2018-10-07T09:17:56.544Z,2.60
2018-10-07T09:19:00.744Z,3.10
2018-10-07T09:20:05.323Z,2.58
2018-10-07T09:21:09.522Z,3.62
2018-10-07T09:22:13.631Z,3.30
2018-10-07T09:23:17.681Z,3.00
2018-10-07T09:24:21.695Z,3.12
2018-10-07T09:25:25.818Z,3.10
2018-10-07T09:26:30.004Z,3.40
2018-10-07T09:27:34.272Z,3.25
2018-10-07T09:28:38.339Z,3.10
2018-10-07T09:29:42.465Z,3.42
2018-10-07T09:30:46.609Z,2.87
2018-10-07T09:31:50.702Z,3.60
2018-10-07T09:32:54.889Z,2.75
2018-10-07T09:33:59.051Z,3.33
2018-10-07T09:35:04.422Z,2.77
2018-10-07T09:36:08.516Z,2.58
2018-10-07T09:37:12.543Z,3.05
2018-10-07T09:38:16.709Z,3.55
2018-10-07T09:39:20.853Z,2.92
2018-10-07T09:40:24.864Z,2.77
2018-10-07T09:41:28.978Z,2.27
2018-10-07T09:42:33.060Z,2.90
2018-10-07T09:43:37.120Z,2.80
2018-10-07T09:44:41.211Z,3.55
2018-10-07T09:45:45.274Z,2.77
2018-10-07T09:46:49.396Z,2.65
2018-10-07T09:47:53.527Z,2.47
2018-10-07T09:48:58.092Z,2.85
2018-10-07T09:50:02.175Z,2.92
2018-10-07T09:51:06.377Z,3.02
2018-10-07T09:52:10.542Z,2.52
2018-10-07T09:53:14.624Z,2.25
2018-10-07T09:54:18.651Z,2.70
2018-10-07T09:55:22.754Z,2.05
2018-10-07T09:56:26.954Z,2.65
2018-10-07T09:57:31.140Z,2.70
2018-10-07T09:58:35.190Z,2.75
2018-10-07T09:59:39.237Z,2.27
2018-10-07T10:00:43.276Z,3.10
2018-10-07T10:01:47.511Z,2.62
2018-10-07T10:02:51.567Z,2.62
2018-10-07T10:03:55.763Z,2.75
2018-10-07T10:04:59.725Z,2.55
2018-10-07T10:06:03.874Z,2.30
2018-10-07T10:07:07.964Z,2.65
2018-10-07T10:08:12.169Z,2.70
2018-10-07T10:09:16.325Z,2.37
2018-10-07T10:10:20.407Z,2.58
2018-10-07T10:11:24.662Z,2.98
2018-10-07T10:12:28.550Z,2.90
2018-10-07T10:13:32.703Z,3.10
2018-10-07T10:14:36.800Z,3.30
2018-10-07T10:15:40.928Z,3.05
2018-10-07T10:16:52.682Z,2.50
2018-10-07T10:18:03.539Z,2.58
2018-10-07T10:19:11.166Z,3.02
2018-10-07T10:20:17.727Z,2.60
2018-10-07T10:21:49.217Z,3.37
2018-10-07T10:23:10.710Z,2.90
2018-10-07T10:24:35.045Z,2.55
2018-10-07T10:25:57.297Z,2.60
2018-10-07T10:28:07.456Z,2.67
2018-10-07T10:29:19.587Z,3.15
2018-10-07T10:30:35.877Z,3.40
2018-10-07T10:31:53.355Z,3.12
2018-10-07T10:33:06.378Z,2.45
2018-10-07T10:34:17.845Z,2.10
2018-10-07T10:35:36.355Z,2.37
2018-10-07T10:36:44.088Z,2.20
2018-10-07T10:39:15.275Z,2.08
2018-10-07T10:40:26.066Z,2.02
2018-10-07T10:41:42.333Z,1.47
2018-10-07T10:42:48.436Z,1.90
2018-10-07T10:44:03.129Z,1.77
2018-10-07T10:45:07.583Z,1.70
2018-10-07T10:46:57.817Z,1.75
2018-10-07T10:48:23.368Z,1.90
2018-10-07T10:49:35.673Z,1.70
2018-10-07T10:50:46.559Z,1.90
2018-10-07T10:53:00.975Z,1.72
2018-10-07T10:54:09.561Z,1.90
2018-10-07T10:55:22.454Z,2.10
2018-10-07T10:56:29.742Z,2.37
2018-10-07T10:57:54.057Z,1.70
2018-10-07T11:00:05.512Z,1.70
2018-10-07T11:01:27.856Z,1.62
2018-10-07T11:03:42.218Z,1.75
2018-10-07T11:04:54.364Z,1.70
2018-10-07T11:06:04.086Z,1.50
2018-10-07T11:07:28.235Z,1.60
2018-10-07T11:08:51.702Z,2.30
2018-10-07T11:10:01.638Z,1.95
2018-10-07T11:11:14.157Z,2.10
2018-10-07T11:13:31.534Z,2.25
2018-10-07T11:15:13.283Z,2.00
2018-10-07T11:16:27.653Z,2.10
2018-10-07T11:17:39.183Z,1.60
2018-10-07T11:19:00.872Z,1.82
2018-10-07T11:20:19.747Z,2.00
2018-10-07T11:21:44.353Z,1.90
2018-10-07T11:24:00.295Z,1.52
2018-10-07T11:25:17.336Z,1.10
2018-10-07T11:26:37.212Z,1.45
2018-10-07T11:27:56.424Z,1.85
2018-10-07T11:29:08.095Z,2.00
2018-10-07T11:30:26.712Z,1.40
2018-10-07T11:31:37.587Z,1.60
2018-10-07T11:32:53.911Z,1.55
2018-10-07T11:34:09.458Z,1.10
2018-10-07T11:35:20.831Z,1.52
2018-10-07T11:37:42.954Z,1.40
2018-10-07T11:39:02.788Z,1.45
2018-10-07T11:40:19.729Z,1.20
2018-10-07T11:41:31.210Z,1.22
2018-10-07T11:42:43.651Z,1.47
2018-10-07T11:43:55.704Z,1.30
2018-10-07T11:45:08.293Z,1.10
2018-10-07T11:46:28.340Z,1.20
2018-10-07T11:49:50.690Z,1.42
2018-10-07T11:53:15.616Z,1.30
2018-10-07T11:54:25.750Z,1.17
2018-10-07T11:55:30.424Z,1.50
2018-10-07T11:56:35.925Z,1.75
2018-10-07T11:57:39.976Z,1.40
2018-10-07T11:58:44.028Z,1.00
2018-10-07T11:59:48.102Z,1.35
2018-10-07T12:00:52.074Z,1.30
2018-10-07T12:01:56.123Z,1.60
2018-10-07T12:03:00.416Z,1.42
2018-10-07T12:04:04.502Z,1.20
2018-10-07T12:05:08.534Z,1.30
2018-10-07T12:06:12.549Z,1.30
2018-10-07T12:07:16.911Z,1.77
2018-10-07T12:08:21.059Z,1.30
2018-10-07T12:09:25.177Z,1.25
2018-10-07T12:10:29.140Z,1.30
2018-10-07T12:11:33.219Z,1.17
2018-10-07T12:12:37.231Z,1.85
2018-10-07T12:13:41.218Z,1.25
2018-10-07T12:14:45.839Z,1.30
2018-10-07T12:15:49.867Z,1.52
2018-10-07T12:16:53.949Z,1.50
2018-10-07T12:17:58.856Z,1.25
2018-10-07T12:19:02.905Z,1.00
2018-10-07T12:20:06.898Z,1.30
2018-10-07T12:21:11.012Z,1.22
2018-10-07T12:22:15.037Z,1.20
2018-10-07T12:23:19.134Z,1.42
2018-10-07T12:24:23.169Z,1.67
2018-10-07T12:25:27.194Z,1.27
2018-10-07T12:26:31.236Z,1.30
2018-10-07T12:27:35.237Z,2.17
2018-10-07T12:28:39.416Z,1.30
2018-10-07T12:29:43.483Z,1.62
2018-10-07T12:30:47.503Z,1.22
2018-10-07T12:31:51.824Z,1.37
2018-10-07T12:32:55.792Z,1.40
2018-10-07T12:33:59.835Z,1.55
2018-10-07T12:35:03.856Z,1.15
2018-10-07T12:36:08.863Z,1.32
2018-10-07T12:37:13.564Z,1.47
2018-10-07T12:38:17.524Z,1.50
2018-10-07T12:39:21.656Z,1.15
2018-10-07T12:40:25.909Z,1.30
2018-10-07T12:41:29.924Z,1.40
2018-10-07T12:42:33.945Z,1.15
2018-10-07T12:43:38.030Z,1.52
2018-10-07T12:44:42.035Z,1.20
2018-10-07T12:45:46.119Z,1.50
2018-10-07T12:46:50.196Z,1.57
2018-10-07T12:47:54.396Z,1.10
2018-10-07T12:48:58.463Z,1.27
2018-10-07T12:50:02.499Z,1.47
2018-10-07T12:51:07.018Z,1.37
2018-10-07T12:52:11.036Z,1.15
2018-10-07T12:53:15.192Z,1.20
2018-10-07T12:54:19.417Z,1.30
2018-10-07T12:55:23.423Z,1.40
2018-10-07T12:56:27.513Z,1.30
2018-10-07T12:57:31.642Z,1.47
2018-10-07T12:58:35.742Z,1.17
2018-10-07T12:59:39.791Z,1.20
2018-10-07T13:00:43.787Z,1.30
2018-10-07T13:01:47.853Z,1.57
2018-10-07T13:02:51.936Z,1.32
2018-10-07T13:03:56.273Z,1.60
2018-10-07T13:05:00.367Z,1.70
2018-10-07T13:06:04.508Z,1.32
2018-10-07T13:07:08.648Z,1.20
2018-10-07T13:08:12.763Z,1.20
2018-10-07T13:09:16.865Z,1.20
2018-10-07T13:10:21.009Z,1.80
2018-10-07T13:11:25.127Z,1.35
2018-10-07T13:12:29.162Z,1.30
2018-10-07T13:13:33.272Z,1.40
2018-10-07T13:14:37.304Z,1.25
2018-10-07T13:15:41.369Z,1.25
2018-10-07T13:16:45.447Z,1.40
2018-10-07T13:17:49.566Z,1.50
2018-10-07T13:18:53.713Z,1.30
2018-10-07T13:19:57.806Z,1.30
2018-10-07T13:21:01.973Z,1.65
2018-10-07T13:22:06.055Z,1.42
2018-10-07T13:23:10.227Z,1.10
2018-10-07T13:24:14.212Z,1.27
2018-10-07T13:25:18.204Z,1.35
2018-10-07T13:26:22.288Z,1.30
2018-10-07T13:27:26.373Z,1.50
2018-10-07T13:28:30.432Z,1.72
2018-10-07T13:29:34.476Z,1.30
2018-10-07T13:30:38.568Z,1.47
2018-10-07T13:31:42.624Z,1.20
2018-10-07T13:32:46.650Z,1.50
2018-10-07T13:33:51.557Z,1.10
2018-10-07T13:34:55.696Z,1.20
2018-10-07T13:36:00.329Z,1.20
2018-10-07T13:37:04.968Z,1.45
2018-10-07T13:38:09.122Z,1.10
2018-10-07T13:39:13.604Z,1.40
2018-10-07T13:40:22.085Z,1.60
2018-10-07T13:41:26.081Z,1.32
2018-10-07T13:42:30.074Z,1.37
2018-10-07T13:43:34.131Z,1.37
2018-10-07T13:44:38.267Z,1.32
2018-10-07T13:45:42.350Z,2.17
2018-10-07T13:46:46.363Z,1.50
2018-10-07T13:47:50.391Z,1.65
2018-10-07T13:48:54.481Z,1.47
2018-10-07T13:49:58.644Z,2.05
2018-10-07T13:51:02.771Z,1.40
2018-10-07T13:52:06.943Z,1.62
2018-10-07T13:53:11.071Z,1.10
2018-10-07T13:54:15.083Z,1.30
2018-10-07T13:55:19.147Z,1.30
2018-10-07T13:56:23.204Z,1.12
2018-10-07T13:57:30.411Z,1.70
2018-10-07T13:58:38.821Z,1.62
2018-10-07T13:59:42.856Z,1.50
2018-10-07T14:00:46.900Z,1.55
2018-10-07T14:01:53.828Z,1.50
2018-10-07T14:02:57.847Z,1.45
2018-10-07T14:04:02.241Z,2.40
2018-10-07T14:05:06.175Z,1.42
2018-10-07T14:06:10.267Z,1.52
2018-10-07T14:07:14.430Z,1.10
2018-10-07T14:08:18.921Z,1.20
2018-10-07T14:09:22.988Z,1.30
2018-10-07T14:10:28.510Z,1.40
2018-10-07T14:11:32.627Z,1.70
2018-10-07T14:12:36.659Z,1.17
2018-10-07T14:13:40.797Z,1.60
2018-10-07T14:14:44.792Z,2.10
2018-10-07T14:15:48.919Z,1.50
2018-10-07T14:16:53.074Z,1.55
2018-10-07T14:17:57.192Z,1.82
2018-10-07T14:19:01.249Z,1.60
2018-10-07T14:20:05.468Z,1.67
2018-10-07T14:21:09.512Z,1.57
2018-10-07T14:22:13.737Z,1.40
2018-10-07T14:23:17.807Z,1.40
2018-10-07T14:24:21.835Z,1.37
2018-10-07T14:25:25.980Z,1.35
2018-10-07T14:26:30.171Z,1.42
2018-10-07T14:27:34.281Z,1.20
2018-10-07T14:28:38.272Z,1.55
2018-10-07T14:29:42.291Z,2.00
2018-10-07T14:30:46.383Z,1.70
2018-10-07T14:31:50.491Z,1.20
2018-10-07T14:32:54.735Z,1.17
2018-10-07T14:33:58.928Z,1.15
2018-10-07T14:35:02.981Z,1.30
2018-10-07T14:36:07.132Z,1.37
2018-10-07T14:37:11.250Z,1.20